Time;durP1;ratioP1;P1;durP2;ratioP2;P2;SDS_P1;SDS_P2;PMS_P1;PMS_P2;Temp;Humidity;BMP_temperature;BMP_pressure;BME280_temperature;BME280_humidity;BME280_pressure;Samples;Min_cycle;Max_cycle;Signal;HPM_P1;HPM_P2
2022/05/30 00:01:22;;;;;;;6.10;4.60;;;7.80;94.40;;;;;;5058920;28;20461;-44
2022/05/30 00:03:48;;;;;;;4.67;3.90;;;7.70;94.40;;;;;;5058427;28;20531;-44
2022/05/30 00:06:18;;;;;;;4.60;4.20;;;7.70;94.50;;;;;;5057137;28;21006;-44
2022/05/30 00:08:44;;;;;;;4.90;4.33;;;7.70;94.80;;;;;;5056812;28;20432;-45
2022/05/30 00:11:12;;;;;;;4.50;4.10;;;7.70;95.00;;;;;;5057507;28;20726;-45
2022/05/30 00:13:38;;;;;;;5.50;4.17;;;7.60;95.00;;;;;;5039213;28;20464;-45
2022/05/30 00:16:09;;;;;;;6.20;4.00;;;7.60;95.10;;;;;;5057639;28;20409;-45
2022/05/30 00:18:35;;;;;;;5.60;4.23;;;7.50;95.10;;;;;;5057514;28;20422;-45
2022/05/30 00:21:01;;;;;;;4.40;3.70;;;7.50;95.20;;;;;;5057680;28;20409;-45
2022/05/30 00:23:27;;;;;;;4.40;3.90;;;7.40;95.30;;;;;;5058513;28;20538;-45
2022/05/30 00:25:52;;;;;;;4.23;3.00;;;7.30;95.40;;;;;;5058531;28;20184;-45
2022/05/30 00:28:24;;;;;;;5.40;3.50;;;7.30;95.80;;;;;;5115526;27;20873;-44
2022/05/30 00:30:50;;;;;;;5.03;3.57;;;7.30;96.00;;;;;;5115559;28;20418;-44
2022/05/30 00:33:18;;;;;;;5.13;4.10;;;7.20;96.10;;;;;;5115654;28;20433;-44
2022/05/30 00:35:44;;;;;;;3.80;3.50;;;7.20;96.10;;;;;;5115246;28;20505;-45
2022/05/30 00:38:10;;;;;;;3.87;3.47;;;7.20;96.10;;;;;;5115621;28;20571;-45
2022/05/30 00:40:37;;;;;;;4.33;3.17;;;7.10;96.20;;;;;;5115572;28;20669;-45
2022/05/30 00:43:29;;;;;;;5.13;3.27;;;7.20;96.30;;;;;;5115177;28;20438;-45
2022/05/30 00:45:57;;;;;;;6.37;3.70;;;7.10;96.20;;;;;;5115415;28;20484;-44
2022/05/30 00:48:30;;;;;;;5.10;3.93;;;7.10;96.30;;;;;;5115107;28;20501;-45
2022/05/30 00:51:02;;;;;;;4.60;4.10;;;7.00;96.30;;;;;;5114263;28;20480;-45
2022/05/30 00:53:28;;;;;;;3.20;2.90;;;7.00;96.30;;;;;;5113787;28;20880;-44
2022/05/30 00:55:54;;;;;;;4.43;3.47;;;7.00;96.30;;;;;;5113289;28;20452;-45
2022/05/30 00:58:22;;;;;;;4.30;3.50;;;6.90;96.30;;;;;;5114593;28;20412;-45
2022/05/30 01:00:47;;;;;;;3.97;3.50;;;6.80;96.40;;;;;;5097025;28;20267;-45
2022/05/30 01:08:42;;;;;;;7.43;4.07;;;6.80;96.50;;;;;;5113623;28;20475;-44
2022/05/30 01:11:07;;;;;;;5.30;3.90;;;6.70;96.40;;;;;;5113506;28;20410;-45
2022/05/30 01:13:33;;;;;;;4.27;3.80;;;6.70;96.50;;;;;;5114570;28;20453;-45
2022/05/30 01:15:58;;;;;;;6.30;4.33;;;6.60;96.60;;;;;;5114567;28;20165;-45
2022/05/30 01:18:52;;;;;;;4.27;3.70;;;6.60;96.80;;;;;;5114753;28;20188;-45
2022/05/30 01:21:41;;;;;;;4.43;3.60;;;6.50;96.80;;;;;;5113965;28;20219;-45
2022/05/30 01:24:32;;;;;;;5.00;3.77;;;6.50;96.80;;;;;;5112982;28;20418;-45
2022/05/30 01:27:02;;;;;;;3.50;3.20;;;6.50;96.80;;;;;;5109691;28;20486;-45
2022/05/30 01:29:42;;;;;;;3.97;3.67;;;6.60;96.80;;;;;;5112933;28;20483;-45
2022/05/30 01:32:07;;;;;;;4.63;4.20;;;6.50;96.70;;;;;;5112611;28;20682;-45
2022/05/30 01:34:33;;;;;;;3.73;3.43;;;6.50;96.80;;;;;;5113700;28;20436;-45
2022/05/30 01:36:59;;;;;;;4.70;3.90;;;6.50;96.90;;;;;;5114060;28;20619;-45
2022/05/30 01:39:25;;;;;;;3.97;3.30;;;6.50;96.90;;;;;;5102382;28;20185;-45
2022/05/30 01:41:50;;;;;;;4.53;3.90;;;6.50;96.90;;;;;;5100873;28;20407;-45
2022/05/30 01:44:16;;;;;;;3.80;3.43;;;6.40;96.90;;;;;;5100305;28;20608;-45
2022/05/30 01:46:42;;;;;;;5.20;3.80;;;6.40;97.00;;;;;;5099760;28;20208;-46
2022/05/30 01:49:08;;;;;;;4.77;4.37;;;6.40;97.10;;;;;;5100412;28;20587;-45
2022/05/30 01:51:34;;;;;;;4.90;3.77;;;6.40;97.10;;;;;;5100543;28;20415;-45
2022/05/30 01:53:59;;;;;;;4.63;3.27;;;6.30;97.10;;;;;;5099406;28;20189;-46
2022/05/30 01:56:25;;;;;;;4.57;4.17;;;6.30;97.20;;;;;;5100298;28;20497;-46
2022/05/30 01:58:51;;;;;;;4.90;4.07;;;6.30;97.20;;;;;;5100141;28;20205;-46
2022/05/30 02:01:27;;;;;;;4.70;4.23;;;6.30;97.10;;;;;;5099156;28;20556;-46
2022/05/30 02:03:54;;;;;;;4.13;3.77;;;6.30;97.00;;;;;;5099077;28;20514;-46
2022/05/30 02:06:21;;;;;;;4.67;4.27;;;6.30;97.10;;;;;;5098782;28;20896;-46
2022/05/30 02:08:47;;;;;;;4.40;4.00;;;6.30;97.10;;;;;;5097559;28;20423;-46
2022/05/30 02:11:14;;;;;;;4.70;3.80;;;6.30;97.20;;;;;;5097857;28;20572;-46
2022/05/30 02:13:40;;;;;;;4.93;3.93;;;6.20;97.20;;;;;;5098973;28;20499;-46
2022/05/30 02:18:52;;;;;;;5.37;3.53;;;6.20;97.30;;;;;;5099218;28;20418;-46
2022/05/30 02:21:18;;;;;;;5.67;3.97;;;6.20;97.40;;;;;;5098668;28;20764;-46
2022/05/30 02:23:44;;;;;;;3.90;3.47;;;6.20;97.40;;;;;;5099655;28;20525;-46
2022/05/30 02:26:10;;;;;;;4.47;3.97;;;6.10;97.40;;;;;;5099502;28;20268;-46
2022/05/30 02:28:36;;;;;;;4.93;3.50;;;6.10;97.50;;;;;;5099269;28;20980;-46
2022/05/30 02:31:02;;;;;;;8.10;4.10;;;6.10;97.50;;;;;;5099671;28;20522;-46
2022/05/30 02:38:56;;;;;;;6.60;4.53;;;6.00;97.60;;;;;;5099167;28;20426;-46
2022/05/30 02:41:22;;;;;;;5.13;3.87;;;6.00;97.50;;;;;;5099281;28;20415;-46
2022/05/30 02:43:49;;;;;;;4.40;4.00;;;6.00;97.90;;;;;;5099392;28;20177;-46
2022/05/30 02:46:14;;;;;;;4.00;3.63;;;6.00;97.50;;;;;;5099090;28;20174;-46
2022/05/30 02:48:40;;;;;;;4.70;4.20;;;6.00;97.60;;;;;;5099490;28;20443;-46
2022/05/30 02:51:06;;;;;;;3.40;3.10;;;6.00;97.60;;;;;;5098040;28;20183;-46
2022/05/30 02:53:32;;;;;;;4.17;3.77;;;5.90;97.50;;;;;;5099170;28;20431;-46
2022/05/30 02:55:59;;;;;;;4.07;3.67;;;5.90;97.60;;;;;;5098291;28;20165;-46
2022/05/30 02:58:25;;;;;;;4.50;3.87;;;5.90;97.40;;;;;;5098234;28;20644;-46
2022/05/30 03:00:50;;;;;;;5.20;4.70;;;5.90;97.30;;;;;;5099108;28;20422;-46
2022/05/30 03:03:18;;;;;;;6.00;4.07;;;5.90;97.30;;;;;;5099128;28;20191;-46
2022/05/30 03:05:44;;;;;;;4.90;4.40;;;5.80;97.40;;;;;;5098772;28;20509;-46
2022/05/30 03:08:10;;;;;;;6.63;5.93;;;5.80;97.50;;;;;;5098118;28;20450;-46
2022/05/30 03:10:36;;;;;;;6.80;5.50;;;5.80;97.50;;;;;;5097805;28;20417;-46
2022/05/30 03:13:02;;;;;;;7.03;5.30;;;5.80;97.40;;;;;;5097376;28;20505;-46
2022/05/30 03:15:28;;;;;;;6.60;6.00;;;5.80;97.40;;;;;;5097318;28;20175;-46
2022/05/30 03:17:53;;;;;;;8.27;6.33;;;5.80;97.50;;;;;;5097591;28;20449;-47
2022/05/30 03:20:19;;;;;;;6.33;5.70;;;5.70;97.40;;;;;;5098745;28;20230;-46
2022/05/30 03:22:47;;;;;;;6.33;5.43;;;5.70;97.30;;;;;;5097223;28;20176;-46
2022/05/30 03:25:12;;;;;;;6.03;5.33;;;5.70;97.30;;;;;;5098543;28;20246;-46
2022/05/30 03:27:38;;;;;;;7.90;5.13;;;5.60;97.30;;;;;;5097778;28;20772;-46
2022/05/30 03:30:04;;;;;;;8.27;6.00;;;5.60;97.20;;;;;;5098210;28;20185;-46
2022/05/30 03:32:30;;;;;;;9.37;8.40;;;5.60;97.20;;;;;;5098239;28;20265;-46
2022/05/30 03:34:55;;;;;;;11.70;9.93;;;5.60;97.20;;;;;;5098625;28;20483;-46
2022/05/30 03:37:21;;;;;;;7.70;6.57;;;5.50;97.20;;;;;;5098256;28;20177;-46
2022/05/30 03:39:47;;;;;;;7.03;5.07;;;5.50;97.20;;;;;;5098183;28;20185;-46
2022/05/30 03:42:15;;;;;;;7.63;6.73;;;5.50;97.20;;;;;;5098298;28;20176;-46
2022/05/30 03:44:41;;;;;;;9.37;7.33;;;5.50;97.30;;;;;;5098014;28;20264;-46
2022/05/30 03:47:08;;;;;;;8.50;7.60;;;5.40;97.30;;;;;;5096710;28;20458;-47
2022/05/30 03:49:33;;;;;;;7.57;6.63;;;5.50;97.30;;;;;;5098171;28;20422;-46
2022/05/30 03:51:59;;;;;;;10.00;7.47;;;5.50;97.30;;;;;;5096456;28;20918;-46
2022/05/30 03:54:25;;;;;;;8.33;7.53;;;5.40;97.20;;;;;;5097538;28;20181;-46
2022/05/30 03:56:51;;;;;;;9.30;7.00;;;5.50;97.20;;;;;;5094358;28;20245;-46
2022/05/30 03:59:16;;;;;;;8.10;6.50;;;5.50;97.10;;;;;;5095085;28;20441;-46
2022/05/30 04:01:42;;;;;;;7.50;6.50;;;5.50;97.20;;;;;;5095730;28;20253;-46
2022/05/30 04:04:08;;;;;;;7.03;6.00;;;5.50;97.30;;;;;;5095729;28;20197;-46
2022/05/30 04:06:34;;;;;;;9.13;6.67;;;5.60;97.50;;;;;;5093543;28;21080;-46
2022/05/30 04:08:59;;;;;;;8.60;4.60;;;5.60;97.40;;;;;;5095236;28;20203;-46
2022/05/30 04:11:25;;;;;;;5.87;4.20;;;5.60;97.30;;;;;;5095392;28;20181;-46
2022/05/30 04:13:50;;;;;;;4.90;4.50;;;5.60;97.30;;;;;;5097065;28;20279;-46
2022/05/30 04:16:16;;;;;;;4.77;4.37;;;5.60;97.30;;;;;;5097874;28;20184;-46
2022/05/30 04:18:43;;;;;;;5.07;4.57;;;5.60;97.30;;;;;;5096317;28;20546;-46
2022/05/30 04:21:11;;;;;;;5.70;5.20;;;5.70;97.40;;;;;;5097264;28;20233;-46
2022/05/30 04:23:37;;;;;;;5.10;4.70;;;5.70;97.50;;;;;;5095768;28;20487;-45
2022/05/30 04:26:05;;;;;;;4.73;4.23;;;5.80;97.90;;;;;;5078348;28;20489;-46
2022/05/30 04:28:31;;;;;;;5.50;5.00;;;5.80;97.60;;;;;;5095768;28;20742;-46
2022/05/30 04:30:56;;;;;;;5.20;4.60;;;5.90;97.60;;;;;;5095528;28;20406;-46
2022/05/30 04:33:22;;;;;;;6.00;4.80;;;6.00;97.80;;;;;;5094445;28;20527;-46
2022/05/30 04:35:47;;;;;;;6.07;5.10;;;6.00;97.30;;;;;;5094909;28;20169;-46
2022/05/30 04:38:13;;;;;;;5.17;4.37;;;6.10;97.20;;;;;;5094972;28;20484;-46
2022/05/30 04:40:39;;;;;;;5.20;4.80;;;6.20;96.90;;;;;;5095069;28;20172;-46
2022/05/30 04:43:04;;;;;;;6.10;5.50;;;6.20;96.70;;;;;;5096694;28;20241;-46
2022/05/30 04:45:30;;;;;;;5.30;4.23;;;6.30;96.90;;;;;;5095629;28;20453;-46
2022/05/30 04:47:56;;;;;;;5.97;4.87;;;6.40;97.00;;;;;;5095695;28;20309;-46
2022/05/30 04:50:21;;;;;;;5.20;4.70;;;6.50;96.90;;;;;;5095362;28;20613;-46
2022/05/30 04:52:47;;;;;;;5.57;4.90;;;6.60;96.70;;;;;;5096149;28;20172;-46
2022/05/30 04:55:15;;;;;;;5.27;4.77;;;6.60;96.60;;;;;;5093808;28;20177;-46
2022/05/30 04:57:49;;;;;;;5.43;4.93;;;6.70;96.50;;;;;;5094209;28;20431;-46
2022/05/30 05:00:18;;;;;;;6.27;4.70;;;6.80;96.40;;;;;;5093457;28;21059;-46
2022/05/30 05:02:44;;;;;;;6.40;5.70;;;6.90;96.30;;;;;;5092741;28;20434;-46
2022/05/30 05:05:10;;;;;;;6.53;5.77;;;7.00;96.20;;;;;;5095225;28;20495;-46
2022/05/30 05:07:50;;;;;;;5.30;4.80;;;7.10;96.10;;;;;;5095835;28;20300;-46
2022/05/30 05:10:47;;;;;;;7.30;5.60;;;7.20;96.00;;;;;;5092999;28;20434;-45
2022/05/30 05:13:13;;;;;;;6.00;5.40;;;7.30;96.00;;;;;;5094015;28;20469;-45
2022/05/30 05:15:39;;;;;;;7.90;6.23;;;7.40;95.90;;;;;;5096430;28;20407;-47
2022/05/30 05:18:05;;;;;;;10.00;8.13;;;7.50;95.80;;;;;;5084653;28;20238;-46
2022/05/30 05:20:40;;;;;;;11.87;10.57;;;7.50;95.60;;;;;;5077176;28;21541;-46
2022/05/30 05:23:06;;;;;;;13.97;10.97;;;7.60;95.50;;;;;;5076498;28;20200;-46
2022/05/30 05:25:31;;;;;;;13.50;9.93;;;7.70;95.30;;;;;;5075377;28;20470;-46
2022/05/30 05:27:57;;;;;;;8.83;7.70;;;7.80;95.30;;;;;;5073580;28;20225;-46
2022/05/30 05:30:22;;;;;;;9.73;8.73;;;7.90;95.20;;;;;;5074028;28;20432;-45
2022/05/30 05:32:48;;;;;;;10.73;7.60;;;8.00;95.20;;;;;;5075556;28;20770;-46
2022/05/30 05:35:14;;;;;;;9.83;7.03;;;8.10;95.20;;;;;;5076821;28;20226;-46
2022/05/30 05:37:40;;;;;;;8.97;7.73;;;8.30;95.10;;;;;;5076312;28;20412;-46
2022/05/30 05:40:06;;;;;;;10.03;8.73;;;8.40;95.10;;;;;;5074347;28;20438;-46
2022/05/30 05:42:32;;;;;;;8.43;7.53;;;8.60;95.10;;;;;;5073149;28;20363;-46
2022/05/30 05:44:58;;;;;;;5.83;5.33;;;8.70;94.90;;;;;;5074162;28;20474;-46
2022/05/30 05:47:24;;;;;;;5.63;5.13;;;8.90;94.60;;;;;;5075499;28;20585;-46
2022/05/30 05:49:49;;;;;;;6.90;6.20;;;9.00;94.20;;;;;;5075468;28;20174;-46
2022/05/30 05:52:15;;;;;;;6.10;5.50;;;9.20;94.10;;;;;;5076269;28;20420;-46
2022/05/30 05:54:41;;;;;;;7.23;6.53;;;9.40;94.10;;;;;;5075758;28;20233;-47
2022/05/30 05:57:08;;;;;;;5.67;5.13;;;9.50;94.00;;;;;;5076459;28;20181;-47
2022/05/30 05:59:34;;;;;;;6.07;4.97;;;9.70;93.80;;;;;;5075511;28;20188;-47
2022/05/30 06:02:02;;;;;;;7.70;4.90;;;9.80;93.60;;;;;;5085829;28;20833;-46
2022/05/30 06:04:34;;;;;;;5.83;5.23;;;10.00;93.00;;;;;;5095426;28;20560;-47
2022/05/30 06:07:01;;;;;;;6.00;5.37;;;10.30;92.80;;;;;;5095362;28;20458;-47
2022/05/30 06:09:27;;;;;;;5.63;4.93;;;10.50;92.50;;;;;;5077787;28;20501;-46
2022/05/30 06:11:53;;;;;;;5.60;5.10;;;10.70;92.10;;;;;;5097073;28;20518;-47
2022/05/30 06:14:19;;;;;;;7.53;5.60;;;10.90;91.70;;;;;;5096225;28;20458;-45
2022/05/30 06:16:46;;;;;;;5.93;4.50;;;11.10;91.40;;;;;;5096682;28;20461;-47
2022/05/30 06:19:11;;;;;;;5.23;4.73;;;11.20;91.00;;;;;;5097363;28;20438;-45
2022/05/30 06:21:39;;;;;;;8.47;6.03;;;11.40;90.80;;;;;;5097057;28;20480;-44
2022/05/30 06:24:05;;;;;;;6.30;5.17;;;11.60;90.40;;;;;;5097159;28;20239;-45
2022/05/30 06:26:31;;;;;;;8.77;4.73;;;11.80;90.20;;;;;;5097858;28;20569;-46
2022/05/30 06:28:58;;;;;;;4.80;3.67;;;12.00;89.00;;;;;;5080862;28;20543;-46
2022/05/30 06:31:29;;;;;;;4.87;4.37;;;12.20;88.70;;;;;;5077151;28;20579;-45
2022/05/30 06:33:55;;;;;;;6.40;4.07;;;12.50;88.70;;;;;;5075962;28;20815;-45
2022/05/30 06:36:23;;;;;;;5.70;4.20;;;12.70;89.00;;;;;;5074396;28;20413;-45
2022/05/30 06:38:49;;;;;;;4.83;4.30;;;12.90;86.70;;;;;;5077078;28;20424;-45
2022/05/30 06:41:30;;;;;;;5.73;4.03;;;13.10;86.70;;;;;;5078271;28;20450;-46
2022/05/30 06:44:04;;;;;;;4.87;3.67;;;13.30;86.80;;;;;;5076410;28;20512;-46
2022/05/30 06:46:33;;;;;;;4.70;3.97;;;13.50;85.30;;;;;;5077067;28;20498;-45
2022/05/30 06:48:59;;;;;;;4.10;3.53;;;13.80;85.10;;;;;;5076321;28;20536;-46
2022/05/30 06:51:27;;;;;;;3.90;3.53;;;14.00;84.20;;;;;;5075684;28;20417;-46
2022/05/30 06:53:54;;;;;;;5.70;3.73;;;14.20;83.80;;;;;;5075999;28;20762;-46
2022/05/30 06:56:22;;;;;;;4.37;3.90;;;14.40;82.50;;;;;;5076313;28;20418;-46
2022/05/30 06:58:52;;;;;;;3.60;3.13;;;14.60;82.10;;;;;;5084784;28;20439;-45
2022/05/30 07:01:19;;;;;;;6.30;3.63;;;14.70;80.40;;;;;;5097650;28;20431;-45
2022/05/30 07:03:45;;;;;;;5.20;2.90;;;14.80;79.10;;;;;;5097408;28;20901;-44
2022/05/30 07:06:15;;;;;;;5.13;3.70;;;15.00;79.40;;;;;;5097402;28;20662;-44
2022/05/30 07:08:43;;;;;;;3.33;3.03;;;15.20;78.60;;;;;;5094690;28;20182;-44
2022/05/30 07:11:09;;;;;;;6.67;2.97;;;15.40;76.60;;;;;;5097615;28;20408;-46
2022/05/30 07:13:35;;;;;;;3.67;2.87;;;15.50;75.70;;;;;;5095874;28;20419;-43
2022/05/30 07:16:01;;;;;;;8.83;3.00;;;15.60;74.80;;;;;;5076539;28;20187;-45
2022/05/30 07:18:27;;;;;;;2.67;2.47;;;15.80;73.70;;;;;;5076834;28;20218;-45
2022/05/30 07:21:00;;;;;;;4.13;2.73;;;16.00;73.10;;;;;;5075852;28;20866;-43
2022/05/30 07:23:26;;;;;;;4.40;3.10;;;16.30;71.90;;;;;;5075401;28;20284;-45
2022/05/30 07:25:57;;;;;;;3.30;2.40;;;16.50;69.90;;;;;;5075435;28;20551;-43
2022/05/30 07:28:25;;;;;;;3.70;2.60;;;16.70;68.50;;;;;;5082241;28;20484;-43
2022/05/30 07:30:51;;;;;;;3.00;2.30;;;16.90;66.90;;;;;;5078053;28;20412;-47
2022/05/30 07:33:17;;;;;;;3.33;1.70;;;17.20;66.00;;;;;;5073250;28;20428;-45
2022/05/30 07:35:44;;;;;;;5.87;1.57;;;17.50;66.70;;;;;;5072226;28;20697;-48
2022/05/30 07:38:09;;;;;;;4.40;2.03;;;18.00;69.30;;;;;;5071981;28;20563;-48
2022/05/30 07:40:35;;;;;;;4.33;1.70;;;18.30;59.90;;;;;;5071412;28;20816;-46
2022/05/30 07:43:01;;;;;;;3.20;1.63;;;18.70;64.10;;;;;;5074214;28;20243;-48
2022/05/30 07:45:27;;;;;;;3.40;2.00;;;19.10;62.00;;;;;;5072658;28;20178;-46
2022/05/30 07:47:53;;;;;;;4.50;3.03;;;19.60;58.10;;;;;;5071675;28;20471;-46
2022/05/30 07:50:19;;;;;;;4.63;1.77;;;19.90;54.50;;;;;;5072542;28;20265;-45
2022/05/30 07:52:45;;;;;;;3.83;2.30;;;20.30;54.70;;;;;;5073124;28;20840;-47
2022/05/30 07:55:11;;;;;;;3.43;1.77;;;20.50;50.80;;;;;;5074180;28;20286;-45
2022/05/30 07:57:52;;;;;;;2.13;1.70;;;20.50;51.80;;;;;;5072913;28;20174;-47
2022/05/30 08:00:23;;;;;;;3.17;1.60;;;20.70;52.00;;;;;;5074748;28;20441;-46
2022/05/30 08:02:49;;;;;;;3.30;1.60;;;20.90;51.40;;;;;;5076691;28;20419;-45
2022/05/30 08:05:15;;;;;;;4.60;1.90;;;21.20;50.60;;;;;;5075807;28;20425;-48
2022/05/30 08:07:44;;;;;;;6.23;2.00;;;21.30;50.00;;;;;;5072735;28;20452;-45
2022/05/30 08:10:11;;;;;;;3.17;1.90;;;21.40;48.60;;;;;;5072095;28;20426;-48
2022/05/30 08:12:36;;;;;;;4.03;2.07;;;21.20;49.40;;;;;;5084937;28;20420;-46
2022/05/30 08:15:03;;;;;;;4.07;2.20;;;21.00;49.50;;;;;;5093741;28;20425;-50
2022/05/30 08:17:28;;;;;;;3.10;1.93;;;21.10;49.50;;;;;;5094536;28;20592;-51
2022/05/30 08:19:54;;;;;;;3.40;1.93;;;21.50;47.90;;;;;;5084976;28;20435;-51
2022/05/30 08:22:22;;;;;;;2.63;1.40;;;22.00;47.00;;;;;;5081214;28;20175;-47
2022/05/30 08:24:48;;;;;;;2.23;1.70;;;22.30;46.20;;;;;;5084260;28;20438;-49
2022/05/30 08:27:14;;;;;;;4.50;1.87;;;22.70;44.80;;;;;;5085722;28;20475;-47
2022/05/30 08:29:42;;;;;;;7.17;2.00;;;23.20;43.90;;;;;;5082860;28;20440;-48
2022/05/30 08:32:08;;;;;;;5.97;2.40;;;23.70;43.00;;;;;;5084485;28;20405;-50
2022/05/30 08:34:36;;;;;;;3.17;2.13;;;23.80;41.30;;;;;;5084542;28;20896;-48
2022/05/30 08:37:02;;;;;;;2.20;2.00;;;24.10;41.20;;;;;;5081757;28;20419;-53
2022/05/30 08:42:12;;;;;;;2.90;1.50;;;24.50;40.30;;;;;;5085437;28;20424;-51
2022/05/30 08:44:38;;;;;;;3.67;1.77;;;24.90;39.60;;;;;;5082860;28;20434;-48
2022/05/30 08:47:20;;;;;;;7.50;2.50;;;25.20;38.10;;;;;;5083886;28;20271;-48
2022/05/30 08:49:49;;;;;;;4.67;2.30;;;25.10;38.10;;;;;;5088168;28;20432;-46
2022/05/30 08:52:46;;;;;;;2.53;2.00;;;24.90;37.60;;;;;;5092169;28;20433;-48
2022/05/30 08:55:36;;;;;;;4.07;2.90;;;25.10;38.60;;;;;;5093097;28;20409;-49
2022/05/30 08:58:27;;;;;;;3.47;1.90;;;25.50;37.40;;;;;;5095772;28;21029;-50
2022/05/30 09:01:01;;;;;;;2.53;1.80;;;25.40;37.00;;;;;;5081202;28;20429;-49
2022/05/30 09:04:06;;;;;;;3.57;2.00;;;25.70;38.00;;;;;;5096084;28;20493;-47
2022/05/30 09:06:34;;;;;;;3.20;2.60;;;25.90;34.90;;;;;;5093167;28;20487;-52
2022/05/30 09:09:05;;;;;;;2.57;2.10;;;25.90;35.50;;;;;;5097725;28;20431;-46
2022/05/30 09:11:40;;;;;;;3.10;2.20;;;26.00;36.80;;;;;;5096884;28;20463;-53
2022/05/30 09:14:19;;;;;;;4.53;2.50;;;26.40;35.90;;;;;;5079389;28;20475;-47
2022/05/30 09:16:50;;;;;;;4.10;2.47;;;27.00;34.80;;;;;;5096958;28;20584;-50
2022/05/30 09:19:18;;;;;;;3.50;1.90;;;27.30;33.30;;;;;;5079942;28;20829;-49
2022/05/30 09:21:43;;;;;;;3.57;2.10;;;27.80;33.70;;;;;;5097542;28;20433;-49
2022/05/30 09:24:12;;;;;;;3.17;1.97;;;28.40;32.40;;;;;;5097135;28;20431;-48
2022/05/30 09:26:40;;;;;;;5.87;2.13;;;28.40;31.50;;;;;;5097633;28;20273;-50
2022/05/30 09:29:12;;;;;;;2.40;1.73;;;28.00;30.00;;;;;;5096247;28;20441;-52
2022/05/30 09:31:59;;;;;;;2.50;1.90;;;27.50;30.00;;;;;;5098187;28;21013;-48
2022/05/30 09:34:37;;;;;;;3.10;1.90;;;27.40;31.50;;;;;;5099360;28;20444;-49
2022/05/30 09:37:03;;;;;;;3.03;2.10;;;28.20;31.80;;;;;;5098477;28;20410;-50
2022/05/30 09:39:41;;;;;;;3.43;1.80;;;29.10;31.10;;;;;;5097441;28;20469;-51
2022/05/30 09:42:27;;;;;;;4.63;2.20;;;30.50;31.20;;;;;;5097618;28;20742;-47
2022/05/30 09:44:56;;;;;;;3.37;2.00;;;31.40;28.30;;;;;;5095959;28;20702;-47
2022/05/30 09:47:22;;;;;;;4.43;2.10;;;32.00;28.70;;;;;;5097688;28;20786;-48
2022/05/30 09:49:53;;;;;;;4.47;1.90;;;32.60;28.30;;;;;;5098725;28;20628;-49
2022/05/30 09:52:36;;;;;;;3.03;1.80;;;33.70;28.30;;;;;;5098592;28;20187;-49
2022/05/30 09:55:26;;;;;;;2.37;1.60;;;33.60;27.80;;;;;;5099548;28;20423;-51
2022/05/30 09:57:53;;;;;;;2.43;2.10;;;32.90;27.60;;;;;;5098144;28;20413;-49
2022/05/30 10:00:28;;;;;;;2.17;1.70;;;32.20;27.20;;;;;;5096302;28;20698;-55
2022/05/30 10:03:10;;;;;;;2.07;1.43;;;31.40;26.80;;;;;;5098956;28;20385;-50
2022/05/30 10:05:37;;;;;;;2.30;1.60;;;30.70;27.20;;;;;;5099856;28;20416;-50
2022/05/30 10:08:22;;;;;;;2.53;2.00;;;30.60;27.60;;;;;;5097179;28;20516;-52
2022/05/30 10:10:50;;;;;;;2.07;1.57;;;30.50;27.80;;;;;;5080284;28;20429;-50
2022/05/30 10:13:39;;;;;;;3.80;2.20;;;30.50;28.30;;;;;;5097208;28;20397;-54
2022/05/30 10:16:07;;;;;;;2.63;1.80;;;29.90;28.20;;;;;;5096572;28;20406;-50
2022/05/30 10:18:59;;;;;;;2.23;1.87;;;28.80;28.80;;;;;;5098432;28;20397;-54
2022/05/30 10:28:20;;;;;;;2.80;1.77;;;26.50;29.00;;;;;;5076482;28;21093;-54
2022/05/30 10:31:07;;;;;;;4.40;2.03;;;25.60;30.50;;;;;;5075185;28;20415;-54
2022/05/30 10:34:21;;;;;;;2.87;1.80;;;26.00;30.90;;;;;;5076813;28;20719;-54
2022/05/30 10:37:08;;;;;;;2.50;1.73;;;26.80;30.60;;;;;;5074830;28;20831;-49
2022/05/30 10:39:48;;;;;;;3.43;1.57;;;27.30;29.50;;;;;;5074074;28;20751;-52
2022/05/30 10:42:22;;;;;;;4.67;1.70;;;27.50;29.60;;;;;;5075835;28;20427;-51
2022/05/30 10:44:59;;;;;;;2.83;2.20;;;27.90;29.40;;;;;;5074679;28;20516;-55
2022/05/30 10:47:38;;;;;;;1.70;1.47;;;28.40;29.10;;;;;;5074645;28;20528;-52
2022/05/30 10:50:10;;;;;;;2.40;1.50;;;28.50;28.50;;;;;;5073893;28;20430;-51
2022/05/30 10:52:40;;;;;;;3.03;1.70;;;28.70;28.50;;;;;;5089607;28;20422;-54
2022/05/30 10:55:13;;;;;;;2.83;1.63;;;28.30;27.70;;;;;;5095139;28;20446;-52
2022/05/30 10:57:42;;;;;;;1.63;1.50;;;27.60;28.90;;;;;;5095782;28;20419;-52
2022/05/30 11:00:13;;;;;;;2.43;1.57;;;26.70;29.00;;;;;;5094739;28;20429;-50
2022/05/30 11:03:06;;;;;;;2.50;1.60;;;25.70;29.30;;;;;;5097169;28;20414;-51
2022/05/30 11:05:45;;;;;;;3.40;1.40;;;25.10;30.60;;;;;;5095475;28;20579;-52
2022/05/30 11:08:49;;;;;;;1.60;1.20;;;25.50;30.80;;;;;;5096177;28;20542;-50
2022/05/30 11:11:41;;;;;;;2.57;1.40;;;25.50;30.20;;;;;;5076156;28;20449;-52
2022/05/30 11:15:08;;;;;;;2.83;2.20;;;25.20;31.00;;;;;;5088704;28;20500;-52
2022/05/30 11:18:09;;;;;;;1.60;1.37;;;24.90;31.70;;;;;;4996246;28;20431;-51
2022/05/30 11:21:00;;;;;;;1.60;1.33;;;24.50;32.30;;;;;;4992017;28;20425;-51
2022/05/30 11:23:25;;;;;;;1.97;1.33;;;24.20;33.10;;;;;;5064544;28;20432;-50
2022/05/30 11:26:23;;;;;;;2.63;1.60;;;24.00;33.40;;;;;;5072519;28;20479;-51
2022/05/30 11:29:13;;;;;;;3.97;1.77;;;24.60;32.50;;;;;;5072175;28;21172;-50
2022/05/30 11:32:02;;;;;;;3.40;1.60;;;25.80;31.10;;;;;;5071642;28;20507;-51
2022/05/30 11:34:43;;;;;;;3.07;1.50;;;27.10;30.60;;;;;;5072696;28;20865;-53
2022/05/30 11:37:31;;;;;;;2.50;1.83;;;28.30;29.80;;;;;;5073303;28;20395;-51
2022/05/30 11:40:15;;;;;;;2.60;1.87;;;29.10;28.30;;;;;;5057562;28;20502;-53
2022/05/30 11:42:58;;;;;;;2.60;1.53;;;29.70;28.90;;;;;;5075230;28;20708;-51
2022/05/30 11:45:43;;;;;;;3.20;1.70;;;30.00;27.30;;;;;;5074065;28;20455;-50
2022/05/30 11:48:30;;;;;;;2.17;1.57;;;30.30;26.90;;;;;;5069957;28;20455;-51
2022/05/30 11:51:19;;;;;;;5.07;1.73;;;30.40;27.90;;;;;;5058678;28;20420;-51
2022/05/30 11:53:56;;;;;;;1.63;1.43;;;30.70;27.50;;;;;;5096356;28;20449;-52
2022/05/30 11:57:00;;;;;;;4.67;2.00;;;30.50;27.80;;;;;;5091405;28;20434;-49
2022/05/30 11:59:48;;;;;;;3.97;1.90;;;30.50;27.50;;;;;;5091438;28;20422;-50
2022/05/30 12:02:26;;;;;;;2.70;2.10;;;29.90;26.50;;;;;;5092298;28;20418;-54
2022/05/30 12:04:51;;;;;;;2.30;1.83;;;29.70;26.70;;;;;;5092772;28;20489;-52
2022/05/30 12:07:32;;;;;;;2.80;1.50;;;29.20;27.20;;;;;;5092165;28;21042;-48
2022/05/30 12:10:30;;;;;;;2.53;1.53;;;28.60;27.70;;;;;;5092023;28;20451;-53
2022/05/30 12:13:02;;;;;;;2.60;1.40;;;28.00;28.30;;;;;;5092663;28;20692;-53
2022/05/30 12:15:48;;;;;;;3.50;1.70;;;27.50;28.20;;;;;;5090202;28;20509;-49
2022/05/30 12:24:18;;;;;;;2.50;1.70;;;26.60;29.20;;;;;;5090674;28;20504;-50
2022/05/30 12:26:59;;;;;;;2.67;1.60;;;26.40;30.00;;;;;;5092793;28;20517;-53
2022/05/30 12:29:37;;;;;;;1.97;1.40;;;26.20;29.40;;;;;;5093142;28;20442;-53
2022/05/30 12:32:09;;;;;;;3.07;1.43;;;26.20;29.70;;;;;;5090096;28;20471;-54
2022/05/30 12:35:00;;;;;;;3.20;2.00;;;26.80;29.60;;;;;;5076519;28;20736;-52
2022/05/30 12:37:47;;;;;;;1.67;1.57;;;27.50;28.80;;;;;;5091202;28;20811;-53
2022/05/30 12:40:27;;;;;;;4.47;2.00;;;28.40;28.50;;;;;;5091619;28;20421;-48
2022/05/30 12:43:22;;;;;;;2.40;1.70;;;29.00;27.80;;;;;;5093412;28;20418;-52
2022/05/30 12:45:57;;;;;;;3.20;2.10;;;28.30;27.20;;;;;;5093709;28;20415;-47
2022/05/30 12:48:31;;;;;;;4.83;2.17;;;27.80;27.40;;;;;;5092992;28;20466;-52
2022/05/30 12:50:57;;;;;;;2.43;1.70;;;27.50;26.90;;;;;;5089583;28;20403;-48
2022/05/30 12:53:25;;;;;;;2.50;1.67;;;27.10;27.60;;;;;;5092102;28;20419;-49
2022/05/30 12:55:53;;;;;;;2.53;1.63;;;27.20;27.70;;;;;;5090622;28;20419;-49
2022/05/30 12:58:38;;;;;;;2.70;2.00;;;27.50;27.20;;;;;;5089676;28;20476;-50
2022/05/30 13:01:23;;;;;;;2.70;1.77;;;27.30;27.40;;;;;;5051475;28;20425;-51
2022/05/30 13:04:29;;;;;;;4.10;1.80;;;27.10;27.10;;;;;;5073096;28;20434;-47
2022/05/30 13:06:57;;;;;;;3.10;1.93;;;27.60;27.40;;;;;;5089736;28;20622;-54
2022/05/30 13:09:36;;;;;;;2.27;1.83;;;28.20;27.60;;;;;;5088718;28;20422;-51
2022/05/30 13:12:10;;;;;;;3.70;2.53;;;28.90;27.30;;;;;;5092113;28;20442;-52
2022/05/30 13:14:57;;;;;;;3.20;1.80;;;29.60;25.90;;;;;;5093388;28;20900;-48
2022/05/30 13:17:46;;;;;;;2.83;1.80;;;29.50;25.60;;;;;;5091339;28;20422;-54
2022/05/30 13:20:18;;;;;;;2.57;1.80;;;29.60;26.00;;;;;;5090000;28;20461;-52
2022/05/30 13:22:51;;;;;;;2.83;1.57;;;29.80;26.60;;;;;;5091813;28;20477;-54
2022/05/30 13:25:29;;;;;;;2.50;1.70;;;30.10;26.60;;;;;;5092898;28;20618;-52
2022/05/30 13:27:55;;;;;;;2.20;1.67;;;30.40;27.30;;;;;;5093736;28;20526;-54
2022/05/30 13:30:28;;;;;;;2.73;1.90;;;30.90;26.20;;;;;;5092429;28;20513;-52
2022/05/30 13:32:54;;;;;;;3.93;2.33;;;31.30;26.20;;;;;;5092766;28;20732;-51
2022/05/30 13:35:25;;;;;;;2.47;1.83;;;31.50;26.40;;;;;;5094394;28;20446;-52
2022/05/30 13:37:57;;;;;;;2.20;1.93;;;31.70;26.90;;;;;;5096516;28;20415;-54
2022/05/30 13:40:26;;;;;;;2.40;2.07;;;31.60;26.40;;;;;;5097511;28;20902;-52
2022/05/30 13:42:57;;;;;;;3.50;1.83;;;31.50;26.10;;;;;;5096228;28;20426;-55